Time;durP1;ratioP1;P1;durP2;ratioP2;P2;SDS_P1;SDS_P2;PMS_P1;PMS_P2;Temp;Humidity;BMP_temperature;BMP_pressure;BME280_temperature;BME280_humidity;BME280_pressure;Samples;Min_cycle;Max_cycle;Signal;HPM_P1;HPM_P2
2023/02/22 00:01:49;;;;;;;;;37.50;31.50;;;;;11.05;59.81;100970.66;146617;584;46016;-90
2023/02/22 00:05:14;;;;;;;;;43.75;34.75;;;;;9.24;57.50;100670.59;146621;611;46010;-88
2023/02/22 00:08:10;;;;;;;;;38.75;32.50;;;;;11.00;61.00;100977.34;146620;570;46014;-86
2023/02/22 00:11:20;;;;;;;;;33.25;28.75;;;;;10.98;60.86;100971.16;146620;572;46010;-86
2023/02/22 00:14:14;;;;;;;;;33.50;30.25;;;;;10.91;61.66;100965.59;146612;614;48012;-87
2023/02/22 00:17:12;;;;;;;;;36.75;30.50;;;;;10.83;61.35;100975.53;146620;569;46010;-80
2023/02/22 00:20:29;;;;;;;;;35.00;30.25;;;;;10.75;59.39;100977.72;146616;606;46012;-88
2023/02/22 00:23:37;;;;;;;;;;;;;;;;;;;;;
2023/02/22 00:26:39;;;;;;;;;27.00;23.00;;;;;10.61;60.62;100971.75;146617;566;46016;-90
2023/02/22 00:29:35;;;;;;;;;21.50;16.00;;;;;10.51;61.54;100966.88;146618;594;46020;-77
2023/02/22 00:32:44;;;;;;;;;17.50;16.75;;;;;10.39;62.08;100971.38;146618;570;46012;-80
2023/02/22 00:35:44;;;;;;;;;17.75;15.25;;;;;10.28;60.88;100965.63;146620;687;46020;-82
2023/02/22 00:38:45;;;;;;;;;15.25;13.75;;;;;10.21;62.14;100962.53;146620;565;46014;-81
2023/02/22 00:41:50;;;;;;;;;15.50;14.75;;;;;10.13;61.23;100965.59;146621;586;46020;-80
2023/02/22 00:45:00;;;;;;;;;15.50;12.50;;;;;10.08;61.43;100961.84;146619;565;46016;-81
2023/02/22 00:48:04;;;;;;;;;14.50;13.25;;;;;10.03;62.13;100968.50;146620;572;46010;-85
2023/02/22 00:51:02;;;;;;;;;17.75;16.00;;;;;9.95;61.62;100960.25;146619;591;46016;-86
2023/02/22 00:54:13;;;;;;;;;14.50;12.00;;;;;9.92;60.70;100957.50;146622;646;46010;-83
2023/02/22 00:57:12;;;;;;;;;16.50;15.50;;;;;9.92;62.47;100959.19;146619;638;47013;-84
2023/02/22 01:00:12;;;;;;;;;13.00;12.00;;;;;9.04;62.34;100810.88;146626;569;45027;-88
2023/02/22 01:03:18;;;;;;;;;17.25;15.00;;;;;9.86;63.41;100953.66;146617;608;46915;-81
2023/02/22 01:06:16;;;;;;;;;17.25;13.50;;;;;9.85;63.36;100949.28;146621;590;46021;-78
2023/02/22 01:09:17;;;;;;;;;18.50;15.00;;;;;9.83;64.48;100956.06;146618;567;46016;-77
2023/02/22 01:12:33;;;;;;;;;;;;;;;;;;;;;
2023/02/22 01:15:37;;;;;;;;;18.75;17.00;;;;;9.77;62.69;100950.53;146618;608;46012;-78
2023/02/22 01:18:49;;;;;;;;;18.25;16.25;;;;;9.72;63.73;100939.94;146622;620;46010;-77
2023/02/22 01:21:49;;;;;;;;;16.25;14.75;;;;;9.65;64.71;100949.00;146619;659;46012;-77
2023/02/22 01:24:47;;;;;;;;;15.50;15.25;;;;;9.60;64.85;100944.38;146620;602;47010;-77
2023/02/22 01:27:50;;;;;;;;;15.00;12.50;;;;;9.59;63.61;100940.88;146617;576;46017;-80
2023/02/22 01:30:46;;;;;;;;;16.25;15.75;;;;;9.62;64.84;100943.66;146620;615;46012;-81
2023/02/22 01:34:01;;;;;;;;;16.75;14.75;;;;;9.61;64.23;100938.41;146618;572;46014;-84
2023/02/22 01:37:00;;;;;;;;;17.25;13.50;;;;;9.62;64.64;100937.59;146620;579;46020;-82
2023/02/22 01:39:55;;;;;;;;;16.00;14.00;;;;;8.75;63.37;100781.62;146621;580;46013;-82
2023/02/22 01:43:07;;;;;;;;;17.75;16.00;;;;;9.71;62.69;100936.41;146622;566;46020;-81
2023/02/22 01:46:44;;;;;;;;;17.00;15.50;;;;;9.68;62.41;100933.66;146616;600;47012;-82
2023/02/22 01:49:49;;;;;;;;;15.00;13.00;;;;;9.58;63.80;100920.97;146623;653;46012;-82
2023/02/22 01:52:47;;;;;;;;;19.25;15.00;;;;;9.58;63.89;100928.75;146617;644;46016;-82
2023/02/22 01:55:57;;;;;;;;;17.25;13.50;;;;;9.58;62.11;100933.03;146620;577;46021;-81
2023/02/22 01:59:05;;;;;;;;;13.50;13.50;;;;;9.57;64.26;100928.69;146622;586;46012;-80
2023/02/22 02:02:13;;;;;;;;;13.50;11.75;;;;;9.56;62.71;100920.00;146623;567;45030;-81
2023/02/22 02:05:11;;;;;;;;;13.25;13.00;;;;;9.62;63.15;100932.41;146617;564;46012;-81
2023/02/22 02:08:48;;;;;;;;;15.25;13.25;;;;;9.71;60.56;100925.19;146621;649;46020;-79
2023/02/22 02:12:00;;;;;;;;;13.75;12.50;;;;;9.74;63.05;100930.53;146617;609;46917;-80
2023/02/22 02:15:18;;;;;;;;;13.00;10.75;;;;;9.70;61.87;100933.75;146619;720;46020;-78
2023/02/22 02:18:19;;;;;;;;;15.00;12.00;;;;;9.68;62.52;100936.25;146618;589;46017;-79
2023/02/22 02:22:14;;;;;;;;;11.00;11.00;;;;;7.89;59.80;100619.66;146623;565;45031;-80
2023/02/22 02:25:54;;;;;;;;;15.25;12.75;;;;;9.56;59.91;100926.88;146618;593;46014;-78
2023/02/22 02:29:26;;;;;;;;;13.00;10.00;;;;;7.78;60.00;100629.31;146622;679;46020;-78
2023/02/22 02:33:07;;;;;;;;;13.75;10.50;;;;;7.96;62.33;100674.34;146618;618;46016;-79
2023/02/22 02:36:28;;;;;;;;;10.50;10.00;;;;;9.34;61.97;100935.06;146622;573;45020;-82
2023/02/22 02:40:21;;;;;;;;;13.25;10.50;;;;;9.24;63.56;100931.94;146619;564;46016;-78
2023/02/22 02:44:07;;;;;;;;;13.50;12.50;;;;;7.33;61.85;100594.75;146620;566;46022;-79
2023/02/22 02:47:23;;;;;;;;;12.75;11.00;;;;;9.22;63.43;100933.56;146621;583;45018;-79
2023/02/22 02:50:37;;;;;;;;;14.50;12.75;;;;;6.86;63.52;100516.25;146621;613;47012;-81
2023/02/22 02:54:03;;;;;;;;;15.00;13.25;;;;;7.39;63.77;100597.72;146616;587;46017;-82
2023/02/22 02:57:01;;;;;;;;;13.00;11.25;;;;;9.33;65.23;100929.00;146619;719;46020;-80
2023/02/22 03:00:00;;;;;;;;;13.25;12.25;;;;;9.38;65.25;100929.28;146621;656;46012;-81
2023/02/22 03:03:44;;;;;;;;;12.00;10.75;;;;;9.38;63.12;100929.28;146623;574;45021;-81
2023/02/22 03:07:08;;;;;;;;;13.25;10.50;;;;;7.67;65.55;100641.59;146618;644;46016;-81
2023/02/22 03:10:41;;;;;;;;;16.75;12.75;;;;;9.39;64.70;100939.72;146619;593;46010;-81
2023/02/22 03:14:10;;;;;;;;;14.00;10.50;;;;;9.42;63.26;100941.59;146617;664;46016;-80
2023/02/22 03:17:19;;;;;;;;;8.50;7.25;;;;;9.44;64.48;100943.50;146618;633;46021;-83
2023/02/22 03:20:44;;;;;;;;;15.25;13.00;;;;;8.39;61.78;100790.63;146615;632;46016;-83
2023/02/22 03:24:19;;;;;;;;;12.50;11.00;;;;;7.66;61.28;100639.78;146618;578;46020;-76
2023/02/22 03:27:42;;;;;;;;;14.00;12.00;;;;;9.45;61.08;100953.03;146616;601;46016;-75
2023/02/22 03:31:01;;;;;;;;;14.25;12.00;;;;;9.39;63.99;100960.44;146621;564;46020;-77
2023/02/22 03:34:19;;;;;;;;;18.25;14.75;;;;;7.51;63.11;100644.03;146615;599;46012;-76
2023/02/22 03:37:37;;;;;;;;;15.50;12.25;;;;;9.12;64.59;100948.41;146618;593;46020;-78
2023/02/22 03:41:12;;;;;;;;;15.00;13.00;;;;;7.95;64.59;100767.22;146619;578;46012;-90
2023/02/22 03:44:21;;;;;;;;;14.25;13.75;;;;;8.93;64.51;100947.28;146621;575;46020;-78
2023/02/22 03:47:35;;;;;;;;;17.00;16.50;;;;;8.97;66.01;100950.97;146619;583;45017;-77
2023/02/22 03:50:49;;;;;;;;;;;;;;;;;;;;;
2023/02/22 03:54:16;;;;;;;;;19.00;15.50;;;;;7.19;64.44;100632.56;146615;564;46017;-77
2023/02/22 03:57:30;;;;;;;;;21.25;16.50;;;;;9.05;65.14;100948.84;146622;636;46010;-76
2023/02/22 04:00:43;;;;;;;;;18.25;17.25;;;;;9.06;66.26;100953.22;146621;570;46013;-77
2023/02/22 04:03:41;;;;;;;;;22.50;17.25;;;;;9.09;65.43;100953.41;146621;636;46020;-78
2023/02/22 04:06:45;;;;;;;;;15.75;14.00;;;;;9.08;65.20;100947.34;146617;564;46012;-79
2023/02/22 04:09:46;;;;;;;;;16.50;15.75;;;;;9.07;65.72;100953.31;146621;587;46009;-79
2023/02/22 04:12:52;;;;;;;;;;;;;;;;;;;;;
2023/02/22 04:15:55;;;;;;;;;22.25;18.25;;;;;8.94;64.53;100950.78;146617;619;47011;-77
2023/02/22 04:18:59;;;;;;;;;22.75;18.50;;;;;8.92;65.33;100960.16;146616;599;46016;-77
2023/02/22 04:21:54;;;;;;;;;17.00;17.00;;;;;8.87;65.48;100958.97;146618;588;46020;-78
2023/02/22 04:24:47;;;;;;;;;25.00;23.25;;;;;8.83;65.57;100957.88;146617;565;46012;-77
2023/02/22 04:27:54;;;;;;;;;22.50;20.75;;;;;8.81;64.39;100958.59;146620;655;46010;-79
2023/02/22 04:31:02;;;;;;;;;20.25;19.75;;;;;7.11;63.20;100681.09;146615;570;46017;-77
2023/02/22 04:34:12;;;;;;;;;19.50;18.00;;;;;8.77;65.29;100954.91;146618;628;46010;-81
2023/02/22 04:37:12;;;;;;;;;23.75;21.50;;;;;8.75;66.00;100962.59;146619;570;46016;-82
2023/02/22 04:40:17;;;;;;;;;19.00;16.50;;;;;8.67;66.24;100956.03;146621;686;46010;-81
2023/02/22 04:43:11;;;;;;;;;17.00;15.50;;;;;8.56;67.51;100952.75;146618;626;46016;-80
2023/02/22 04:46:12;;;;;;;;;16.00;13.75;;;;;8.46;68.14;100953.00;146619;644;46021;-81
2023/02/22 04:49:44;;;;;;;;;14.50;14.50;;;;;6.54;66.26;100629.22;146620;682;46016;-83
2023/02/22 04:52:44;;;;;;;;;19.50;13.50;;;;;8.42;67.74;100948.44;146619;581;46021;-83
2023/02/22 04:55:40;;;;;;;;;13.00;11.75;;;;;8.40;67.71;100955.19;146618;601;46014;-80
2023/02/22 04:58:41;;;;;;;;;18.00;13.75;;;;;8.40;68.94;100951.72;146620;603;46020;-81
2023/02/22 05:01:47;;;;;;;;;;;;;;;;;;;;;
2023/02/22 05:05:00;;;;;;;;;;;;;;;;;;;;;
2023/02/22 05:07:53;;;;;;;;;14.50;12.00;;;;;8.52;67.30;100947.31;146619;600;46017;-82
2023/02/22 05:10:45;;;;;;;;;20.75;15.75;;;;;8.54;67.12;100954.38;146622;597;46010;-82
2023/02/22 05:13:37;;;;;;;;;20.25;16.75;;;;;8.54;67.72;100954.38;146617;564;46015;-80
2023/02/22 05:16:29;;;;;;;;;16.50;14.00;;;;;8.50;67.18;100955.00;146613;750;46021;-80
2023/02/22 05:19:21;;;;;;;;;15.25;14.75;;;;;8.47;67.06;100953.88;146618;606;46042;-84
2023/02/22 05:22:13;;;;;;;;;19.00;15.25;;;;;8.43;68.88;100959.66;146618;579;46021;-85
2023/02/22 05:25:06;;;;;;;;;16.00;15.25;;;;;8.40;68.80;100960.34;146618;575;46014;-81
2023/02/22 05:28:08;;;;;;;;;21.75;17.75;;;;;8.40;68.73;100959.47;146620;569;46020;-83
2023/02/22 05:31:05;;;;;;;;;13.75;12.00;;;;;8.46;68.55;100959.84;146620;600;46014;-81
2023/02/22 05:34:03;;;;;;;;;20.00;14.25;;;;;8.56;68.17;100964.81;146620;581;46020;-82
2023/02/22 05:37:02;;;;;;;;;17.75;15.00;;;;;8.65;68.60;100967.97;146618;574;46020;-82
2023/02/22 05:40:07;;;;;;;;;20.25;16.00;;;;;8.70;67.79;100966.56;146622;593;46010;-82
2023/02/22 05:43:30;;;;;;;;;19.75;16.75;;;;;7.05;65.96;100654.03;146615;688;46013;-84
2023/02/22 05:46:24;;;;;;;;;18.50;15.75;;;;;8.96;67.26;100980.22;146623;634;46010;-79
2023/02/22 05:49:20;;;;;;;;;21.00;17.75;;;;;9.39;68.09;100977.66;146619;569;46016;-78
2023/02/22 05:52:22;;;;;;;;;20.50;16.00;;;;;10.11;66.69;100982.75;146619;570;46011;-79
2023/02/22 05:55:23;;;;;;;;;33.00;28.75;;;;;10.97;67.34;100978.88;146619;588;46012;-79
2023/02/22 05:58:19;;;;;;;;;20.00;19.75;;;;;11.89;64.85;100984.53;146619;767;46010;-82
2023/02/22 06:01:14;;;;;;;;;23.75;21.25;;;;;12.87;60.69;100989.25;146615;599;46012;-78
2023/02/22 06:04:15;;;;;;;;;26.50;24.25;;;;;13.87;55.69;100988.47;146620;607;46010;-78
2023/02/22 06:07:09;;;;;;;;;25.00;20.75;;;;;14.62;54.49;100991.56;146614;611;46017;-77
2023/02/22 06:10:17;;;;;;;;;24.00;21.00;;;;;15.39;52.98;100992.72;146620;623;46012;-81
2023/02/22 06:13:15;;;;;;;;;28.25;23.50;;;;;16.34;49.76;100992.44;146619;627;46013;-79
2023/02/22 06:16:19;;;;;;;;;48.25;38.75;;;;;16.76;48.04;101002.50;146620;583;46020;-79
2023/02/22 06:19:25;;;;;;;;;39.50;33.50;;;;;17.05;47.61;100988.56;146614;571;46016;-83
2023/02/22 06:22:27;;;;;;;;;29.25;25.75;;;;;17.54;47.31;100989.06;146615;580;46021;-82
2023/02/22 06:25:39;;;;;;;;;37.25;31.75;;;;;18.15;46.02;100992.41;146617;629;46014;-81
2023/02/22 06:28:34;;;;;;;;;34.00;31.75;;;;;18.67;45.22;100993.63;146621;564;46011;-82
2023/02/22 06:31:44;;;;;;;;;;;;;;;;;;;;;
2023/02/22 06:34:42;;;;;;;;;55.00;43.00;;;;;19.08;42.56;100997.19;146620;629;46020;-80
2023/02/22 06:37:50;;;;;;;;;51.00;39.75;;;;;19.02;42.33;100993.56;146613;575;47012;-77
2023/02/22 06:41:01;;;;;;;;;49.75;40.00;;;;;18.91;42.27;100998.59;146621;565;46020;-79
2023/02/22 06:43:58;;;;;;;;;47.50;38.25;;;;;18.72;42.46;100997.25;146615;583;46017;-79
2023/02/22 06:46:58;;;;;;;;;49.50;40.75;;;;;18.51;42.93;101008.16;146619;681;46020;-80
2023/02/22 06:50:13;;;;;;;;;51.00;38.00;;;;;17.60;43.66;100907.03;146614;613;46013;-87
2023/02/22 06:53:09;;;;;;;;;46.25;37.75;;;;;17.90;44.28;101009.25;146614;617;47020;-83
2023/02/22 06:56:18;;;;;;;;;50.25;40.75;;;;;17.53;45.90;101014.38;146615;647;46016;-78
2023/02/22 06:59:30;;;;;;;;;44.00;36.00;;;;;17.21;46.90;101008.22;146621;564;46010;-80
2023/02/22 07:02:47;;;;;;;;;44.25;35.50;;;;;17.02;47.88;101017.28;146611;589;46016;-77
2023/02/22 07:05:58;;;;;;;;;44.50;35.25;;;;;16.98;47.20;101019.78;146613;638;46010;-85
2023/02/22 07:09:03;;;;;;;;;46.25;36.75;;;;;16.97;47.11;101018.88;146612;708;46016;-81
2023/02/22 07:12:21;;;;;;;;;45.50;37.75;;;;;16.92;46.53;101020.50;146620;646;46021;-75
2023/02/22 07:15:22;;;;;;;;;45.00;38.25;;;;;16.85;46.72;101019.41;146612;639;47012;-79
2023/02/22 07:18:36;;;;;;;;;48.50;39.50;;;;;15.27;46.89;100748.44;146619;626;46010;-84
2023/02/22 07:21:34;;;;;;;;;40.50;33.75;;;;;16.92;45.53;101024.84;146611;659;46913;-75
2023/02/22 07:24:54;;;;;;;;;39.25;33.00;;;;;15.60;46.12;100782.56;146618;605;46010;-77
2023/02/22 07:28:19;;;;;;;;;;;;;;;;;;;;;
2023/02/22 07:31:28;;;;;;;;;44.00;34.00;;;;;17.08;45.50;101020.09;146616;580;46020;-72
2023/02/22 07:34:36;;;;;;;;;33.50;30.00;;;;;17.12;46.23;101028.03;146612;591;46012;-82
2023/02/22 07:37:43;;;;;;;;;37.25;31.25;;;;;17.08;45.43;101025.34;146620;606;46010;-77
2023/02/22 07:40:56;;;;;;;;;38.50;32.50;;;;;17.10;46.52;101025.34;146615;604;46017;-80
2023/02/22 07:44:11;;;;;;;;;40.25;33.25;;;;;15.60;47.16;100745.97;146619;563;46010;-85
2023/02/22 07:47:11;;;;;;;;;39.25;30.25;;;;;17.26;45.82;101013.63;146617;621;46012;-83
2023/02/22 07:50:21;;;;;;;;;34.75;29.00;;;;;17.36;46.10;101020.00;146620;625;46012;-76
2023/02/22 07:53:55;;;;;;;;;25.00;24.25;;;;;16.80;47.99;100905.78;146618;581;46014;-80
2023/02/22 07:56:55;;;;;;;;;34.00;27.50;;;;;17.80;47.91;101012.50;146617;572;46021;-82
2023/02/22 07:59:54;;;;;;;;;33.25;29.50;;;;;18.03;46.89;101018.34;146614;588;46016;-84
2023/02/22 08:03:05;;;;;;;;;32.75;26.50;;;;;16.28;45.92;100683.50;146621;602;46020;-85
2023/02/22 08:06:03;;;;;;;;;33.50;29.00;;;;;18.33;45.08;101005.09;146615;640;46016;-75
2023/02/22 08:09:17;;;;;;;;;34.75;29.00;;;;;17.62;44.98;100866.00;146621;640;46020;-75
2023/02/22 08:12:15;;;;;;;;;32.25;25.75;;;;;18.57;44.47;101007.44;146616;580;46012;-78
2023/02/22 08:15:37;;;;;;;;;32.25;27.50;;;;;18.58;43.86;101009.19;146617;572;46020;-76
2023/02/22 08:18:40;;;;;;;;;25.00;23.00;;;;;18.58;44.42;101007.44;146615;615;46017;-75
2023/02/22 08:21:44;;;;;;;;;27.25;25.00;;;;;18.52;43.82;101004.69;146623;565;46019;-75
2023/02/22 08:24:48;;;;;;;;;27.00;25.00;;;;;18.46;45.28;101001.91;146617;565;46015;-76
2023/02/22 08:28:14;;;;;;;;;25.25;23.25;;;;;18.44;46.16;101007.13;146619;598;46012;-75
2023/02/22 08:31:23;;;;;;;;;32.00;28.25;;;;;18.42;47.42;101007.94;146619;585;46012;-74
2023/02/22 08:34:28;;;;;;;;;27.75;24.25;;;;;18.37;46.23;101006.94;146620;583;46011;-75
2023/02/22 08:37:57;;;;;;;;;32.75;28.75;;;;;18.29;47.94;101006.75;146615;681;46016;-78
2023/02/22 08:41:02;;;;;;;;;31.75;27.25;;;;;18.30;49.86;101011.16;146619;617;46021;-76
2023/02/22 08:44:10;;;;;;;;;27.00;23.50;;;;;16.84;48.57;100760.09;146618;584;46012;-74
2023/02/22 08:47:15;;;;;;;;;27.75;24.50;;;;;18.29;50.50;101005.88;146619;641;46010;-75
2023/02/22 08:50:29;;;;;;;;;31.50;26.75;;;;;18.33;50.07;100995.47;146616;597;46016;-75
2023/02/22 08:53:35;;;;;;;;;28.75;25.50;;;;;18.38;49.71;100996.50;146620;605;46020;-75
2023/02/22 08:56:39;;;;;;;;;29.00;21.75;;;;;18.37;50.39;100997.31;146617;610;46013;-75
2023/02/22 08:59:37;;;;;;;;;27.50;24.50;;;;;18.41;50.45;101000.91;146619;648;46020;-76
2023/02/22 09:03:10;;;;;;;;;29.50;25.75;;;;;18.51;49.95;101002.91;146618;578;46012;-75
2023/02/22 09:06:24;;;;;;;;;33.50;28.50;;;;;18.67;48.75;100991.91;146617;575;46020;-75
2023/02/22 09:09:31;;;;;;;;;37.00;30.50;;;;;18.90;48.65;100991.53;146619;584;46016;-76
2023/02/22 09:12:39;;;;;;;;;25.00;21.75;;;;;19.12;48.64;100985.87;146618;569;46012;-75
2023/02/22 09:15:45;;;;;;;;;37.00;29.50;;;;;19.37;47.30;100995.12;146614;569;46016;-76
2023/02/22 09:18:47;;;;;;;;;37.25;31.50;;;;;19.46;45.47;100983.91;146617;598;46021;-75
2023/02/22 09:21:56;;;;;;;;;45.25;35.00;;;;;19.37;45.42;100984.62;146617;611;46014;-76
2023/02/22 09:25:01;;;;;;;;;44.25;34.50;;;;;19.12;46.55;100980.63;146619;699;46013;-76
2023/02/22 09:28:03;;;;;;;;;47.00;38.25;;;;;18.93;47.07;100987.22;146615;629;46016;-75
2023/02/22 09:31:12;;;;;;;;;44.50;36.00;;;;;18.83;47.43;100992.28;146620;611;46010;-75
2023/02/22 09:34:14;;;;;;;;;50.25;39.75;;;;;18.62;49.06;100984.75;146617;619;47012;-76
2023/02/22 09:37:23;;;;;;;;;43.50;36.00;;;;;18.57;50.00;100989.91;146621;583;46020;-78
2023/02/22 09:40:44;;;;;;;;;48.25;38.25;;;;;17.06;49.53;100710.00;146615;592;47914;-75
2023/02/22 09:44:15;;;;;;;;;45.25;36.25;;;;;18.70;49.11;100983.19;146619;719;46912;-78
2023/02/22 09:47:33;;;;;;;;;40.75;33.50;;;;;18.75;48.28;100980.69;146613;576;47912;-76
2023/02/22 09:50:43;;;;;;;;;36.00;30.50;;;;;17.65;48.07;100787.44;146619;563;46010;-77
2023/02/22 09:53:59;;;;;;;;;39.50;31.00;;;;;17.48;46.90;100766.06;146619;595;46012;-76
2023/02/22 09:57:15;;;;;;;;;32.00;28.75;;;;;18.69;48.23;100984.03;146621;563;46012;-75
2023/02/22 10:00:35;;;;;;;;;35.50;30.75;;;;;18.83;47.02;100973.88;146618;595;46016;-75
2023/02/22 10:04:29;;;;;;;;;28.00;25.25;;;;;19.07;46.44;100977.03;146618;689;46021;-74
2023/02/22 10:08:09;;;;;;;;;21.00;19.00;;;;;17.51;45.29;100667.41;146618;566;46012;-75
2023/02/22 10:11:59;;;;;;;;;;;;;;;;;;;;;
2023/02/22 10:16:05;;;;;;;;;22.00;18.75;;;;;18.55;44.67;100830.53;146614;661;46016;-76
2023/02/22 10:19:45;;;;;;;;;24.75;19.50;;;;;19.29;43.10;100953.81;146619;594;46021;-76
2023/02/22 10:23:13;;;;;;;;;;;;;;;;;;;;;
2023/02/22 10:26:58;;;;;;;;;;;;;;;;;;;;;
2023/02/22 10:30:53;;;;;;;;;23.25;20.25;;;;;18.48;43.53;100829.53;146615;573;46014;-76
2023/02/22 10:34:11;;;;;;;;;17.75;17.00;;;;;19.13;43.15;100929.84;146619;616;46021;-74
2023/02/22 10:37:38;;;;;;;;;17.50;14.75;;;;;17.76;43.77;100716.03;146619;614;46012;-76
2023/02/22 10:40:39;;;;;;;;;16.25;14.25;;;;;19.10;43.14;100932.41;146621;682;46010;-76
2023/02/22 10:43:48;;;;;;;;;15.00;12.50;;;;;19.09;44.37;100927.09;146617;613;46016;-77
2023/02/22 10:47:26;;;;;;;;;14.00;12.50;;;;;17.80;45.05;100693.41;146622;718;46020;-76
2023/02/22 10:50:34;;;;;;;;;15.75;13.75;;;;;19.35;45.24;100919.75;146617;671;46018;-76
2023/02/22 10:53:41;;;;;;;;;12.00;12.00;;;;;19.53;43.31;100906.94;146622;599;45031;-76
2023/02/22 10:56:49;;;;;;;;;16.00;13.00;;;;;19.61;43.33;100910.56;146616;657;46017;-76
2023/02/22 10:59:56;;;;;;;;;17.00;14.00;;;;;19.72;42.17;100908.16;146607;576;47012;-75
2023/02/22 11:03:18;;;;;;;;;;;;;;;;;;;;;
2023/02/22 11:06:34;;;;;;;;;14.50;11.75;;;;;19.60;40.71;100897.38;146607;649;46020;-80
2023/02/22 11:09:57;;;;;;;;;13.50;11.00;;;;;19.53;41.92;100893.78;146606;564;46012;-75
2023/02/22 11:13:21;;;;;;;;;15.25;10.25;;;;;18.08;41.59;100620.50;146606;641;46010;-76
2023/02/22 11:16:50;;;;;;;;;15.00;15.00;;;;;19.83;42.57;100874.13;146606;743;46016;-78
2023/02/22 11:19:52;;;;;;;;;19.50;15.75;;;;;20.10;40.71;100880.69;146607;589;46012;-78
2023/02/22 11:23:07;;;;;;;;;11.75;10.50;;;;;20.25;39.86;100875.62;146606;602;46016;-76
2023/02/22 11:26:14;;;;;;;;;18.25;15.00;;;;;20.36;41.95;100867.87;146607;570;46010;-75
2023/02/22 11:29:38;;;;;;;;;16.00;13.75;;;;;20.49;41.12;100867.16;146605;593;46914;-76
2023/02/22 11:32:36;;;;;;;;;18.25;16.00;;;;;20.58;38.86;100867.31;146606;612;46021;-76
2023/02/22 11:35:55;;;;;;;;;18.25;18.00;;;;;20.66;40.40;100862.16;146605;611;46016;-76
2023/02/22 11:39:43;;;;;;;;;;;;;;;;;;;;;
2023/02/22 11:42:32;;;;;;;;;19.25;16.00;;;;;21.03;38.66;100865.19;146708;564;46021;-76
2023/02/22 11:45:30;;;;;;;;;19.00;16.00;;;;;21.04;39.52;100853.81;146619;590;46012;-78
2023/02/22 11:48:48;;;;;;;;;14.50;14.25;;;;;21.04;38.46;100857.31;146622;573;46021;-75
2023/02/22 11:52:15;;;;;;;;;16.50;15.50;;;;;21.09;40.58;100845.06;146618;569;46016;-70
2023/02/22 11:55:46;;;;;;;;;14.00;12.75;;;;;20.97;41.05;100790.47;146621;624;46010;-71
2023/02/22 11:59:15;;;;;;;;;13.25;12.00;;;;;21.38;41.14;100834.81;146615;631;47012;-72
2023/02/22 12:03:04;;;;;;;;;16.00;15.00;;;;;21.43;39.35;100833.13;146625;568;45914;-70
2023/02/22 12:06:52;;;;;;;;;13.75;12.00;;;;;21.28;40.65;100822.41;146618;644;46012;-72
2023/02/22 12:10:44;;;;;;;;;12.25;12.25;;;;;20.79;42.31;100778.84;146625;628;45020;-70
2023/02/22 12:14:25;;;;;;;;;14.50;11.75;;;;;19.50;41.99;100622.84;146618;572;47012;-70
2023/02/22 12:17:59;;;;;;;;;16.75;12.50;;;;;20.27;43.03;100764.19;146622;596;46012;-71
2023/02/22 12:21:07;;;;;;;;;14.50;12.00;;;;;20.64;42.95;100830.50;146618;566;46012;-72
2023/02/22 12:24:36;;;;;;;;;15.00;13.75;;;;;20.60;43.31;100820.81;146623;580;46012;-70
2023/02/22 12:28:22;;;;;;;;;12.00;11.75;;;;;20.57;43.32;100817.25;146615;652;46036;-71
2023/02/22 12:31:44;;;;;;;;;15.25;14.00;;;;;20.58;44.44;100804.09;146621;596;46010;-70
2023/02/22 12:34:59;;;;;;;;;12.50;11.50;;;;;20.77;43.93;100810.44;146617;575;46908;-71
2023/02/22 12:38:37;;;;;;;;;14.75;13.00;;;;;20.90;42.74;100809.72;146624;612;46010;-71
2023/02/22 12:42:03;;;;;;;;;17.00;16.00;;;;;21.16;42.46;100806.47;146618;581;46014;-71
2023/02/22 12:45:27;;;;;;;;;15.00;14.50;;;;;21.36;42.25;100794.34;146622;563;46020;-70
2023/02/22 12:49:21;;;;;;;;;19.75;18.00;;;;;21.39;42.80;100790.84;146621;589;46012;-72
2023/02/22 12:53:25;;;;;;;;;16.25;14.50;;;;;20.80;43.01;100683.09;146622;601;46020;-71
2023/02/22 12:56:54;;;;;;;;;14.00;13.75;;;;;20.83;43.09;100683.12;146619;640;46013;-71
2023/02/22 13:00:24;;;;;;;;;20.50;16.50;;;;;21.45;42.81;100790.91;146621;680;46012;-71
2023/02/22 13:03:55;;;;;;;;;18.25;16.75;;;;;21.26;42.10;100781.06;146618;618;46013;-71
2023/02/22 13:07:03;;;;;;;;;17.75;16.75;;;;;21.03;43.75;100784.38;146622;615;47010;-71
2023/02/22 13:10:39;;;;;;;;;19.75;19.75;;;;;20.89;43.05;100784.22;146616;589;47012;-70
2023/02/22 13:14:15;;;;;;;;;17.75;16.25;;;;;20.84;43.77;100787.66;146624;604;46010;-71
2023/02/22 13:17:51;;;;;;;;;22.00;18.50;;;;;20.81;43.98;100775.38;146618;617;46908;-71
2023/02/22 13:21:22;;;;;;;;;17.50;17.50;;;;;20.88;43.95;100785.09;146623;597;47012;-71
2023/02/22 13:25:11;;;;;;;;;11.25;11.00;;;;;20.53;43.95;100716.25;146618;621;45908;-71
2023/02/22 13:29:14;;;;;;;;;16.00;15.50;;;;;20.67;44.87;100763.78;146622;597;46020;-70
2023/02/22 13:32:50;;;;;;;;;15.25;14.00;;;;;20.51;45.73;100778.53;146620;589;46012;-71
2023/02/22 13:36:45;;;;;;;;;17.25;16.50;;;;;20.17;46.72;100775.47;146623;564;46012;-71
2023/02/22 13:40:16;;;;;;;;;16.50;14.25;;;;;19.95;47.39;100779.56;146617;647;46016;-73
2023/02/22 13:43:51;;;;;;;;;12.25;12.00;;;;;19.90;47.51;100781.22;146620;629;46010;-71
2023/02/22 13:47:22;;;;;;;;;13.75;13.00;;;;;19.95;46.74;100766.41;146615;658;46038;-71
2023/02/22 13:51:02;;;;;;;;;;;;;;;;;;;;;
2023/02/22 13:54:30;;;;;;;;;20.75;17.50;;;;;18.68;47.07;100539.28;146616;603;46016;-70
2023/02/22 13:57:47;;;;;;;;;11.75;11.25;;;;;19.31;46.81;100645.34;146621;645;45021;-70
2023/02/22 14:00:56;;;;;;;;;16.50;15.50;;;;;20.15;47.01;100792.09;146615;604;46016;-71
2023/02/22 14:04:19;;;;;;;;;18.75;17.00;;;;;20.18;47.13;100776.34;146615;573;46020;-71
2023/02/22 14:08:04;;;;;;;;;13.75;13.25;;;;;20.03;46.91;100784.91;146610;611;46016;-70
2023/02/22 14:11:45;;;;;;;;;14.00;14.00;;;;;19.93;48.74;100788.28;146620;580;46021;-70
2023/02/22 14:15:16;;;;;;;;;15.00;13.50;;;;;18.90;48.68;100645.59;146612;601;47911;-72
2023/02/22 14:18:31;;;;;;;;;15.00;15.00;;;;;19.51;49.58;100800.81;146618;596;46021;-72
2023/02/22 14:21:39;;;;;;;;;16.50;15.00;;;;;19.41;49.11;100796.25;146614;616;46016;-71
2023/02/22 14:25:00;;;;;;;;;12.50;12.00;;;;;19.39;49.30;100788.34;146619;609;46010;-72
2023/02/22 14:28:01;;;;;;;;;16.75;12.25;;;;;19.42;49.11;100791.88;146615;654;46016;-71
2023/02/22 14:31:10;;;;;;;;;15.50;13.75;;;;;19.40;49.52;100791.84;146621;700;46010;-71
2023/02/22 14:34:38;;;;;;;;;13.50;10.75;;;;;19.34;50.02;100787.34;146617;553;46013;-71
2023/02/22 14:38:04;;;;;;;;;19.75;16.75;;;;;19.17;51.19;100786.22;146620;570;46010;-72
2023/02/22 14:41:03;;;;;;;;;17.50;14.75;;;;;19.06;50.73;100788.63;146615;621;46017;-70
2023/02/22 14:44:06;;;;;;;;;14.00;14.00;;;;;18.96;51.19;100785.84;146617;631;46020;-71
2023/02/22 14:47:10;;;;;;;;;14.50;14.25;;;;;18.81;52.09;100789.94;146616;586;45021;-72
2023/02/22 14:50:06;;;;;;;;;13.00;13.00;;;;;18.70;52.70;100794.09;146709;569;46012;-71
2023/02/22 14:53:50;;;;;;;;;18.25;14.50;;;;;18.30;52.30;100725.03;146617;618;46033;-72
2023/02/22 14:57:16;;;;;;;;;17.00;15.00;;;;;18.61;51.91;100786.91;146621;619;46020;-71
2023/02/22 15:00:29;;;;;;;;;18.00;17.00;;;;;18.65;52.36;100791.34;146616;780;46017;-71
2023/02/22 15:03:36;;;;;;;;;18.75;18.75;;;;;18.69;52.11;100794.91;146620;571;46033;-72
2023/02/22 15:06:33;;;;;;;;;19.75;18.25;;;;;18.76;52.45;100793.34;146616;574;46034;-72
2023/02/22 15:09:30;;;;;;;;;20.75;18.00;;;;;18.81;52.76;100795.19;146618;570;46020;-71